createdAt,value
2023-04-14T00:01:23.713Z,36.29
2023-04-14T00:03:50.527Z,36.40
2023-04-14T00:06:17.301Z,36.44
2023-04-14T00:08:43.834Z,36.14
2023-04-14T00:11:10.363Z,36.33
2023-04-14T00:13:37.158Z,36.36
2023-04-14T00:16:03.960Z,36.42
2023-04-14T00:18:30.473Z,36.42
2023-04-14T00:20:56.999Z,36.47
2023-04-14T00:23:23.636Z,36.08
2023-04-14T00:25:50.933Z,36.17
2023-04-14T00:28:17.421Z,36.43
2023-04-14T00:30:46.569Z,36.17
2023-04-14T00:33:13.029Z,36.30
2023-04-14T00:35:39.672Z,36.07
2023-04-14T00:38:06.509Z,36.25
2023-04-14T00:40:33.073Z,36.08
2023-04-14T00:42:59.566Z,36.10
2023-04-14T00:45:27.387Z,36.02
2023-04-14T00:47:54.846Z,36.41
2023-04-14T00:50:23.033Z,36.29
2023-04-14T00:52:52.317Z,36.26
2023-04-14T00:55:22.434Z,36.34
2023-04-14T00:57:49.754Z,36.04
2023-04-14T01:00:16.755Z,36.23
2023-04-14T01:02:43.529Z,36.21
2023-04-14T01:05:11.048Z,36.03
2023-04-14T01:07:38.509Z,36.14
2023-04-14T01:10:05.990Z,36.02
2023-04-14T01:12:39.553Z,36.23
2023-04-14T01:15:26.971Z,36.21
2023-04-14T01:18:12.124Z,36.29
2023-04-14T01:20:44.678Z,36.20
2023-04-14T01:23:16.019Z,36.02
2023-04-14T01:26:02.532Z,36.12
2023-04-14T01:28:55.051Z,36.03
2023-04-14T01:31:26.726Z,36.29
2023-04-14T01:34:28.992Z,36.24
2023-04-14T01:37:18.928Z,36.30
2023-04-14T01:39:55.458Z,36.13
2023-04-14T01:42:27.018Z,36.08
2023-04-14T01:44:58.691Z,36.18
2023-04-14T01:47:26.678Z,36.01
2023-04-14T01:49:55.672Z,36.13
2023-04-14T01:52:23.133Z,35.90
2023-04-14T01:54:53.806Z,35.83
2023-04-14T01:57:22.831Z,36.08
2023-04-14T01:59:52.782Z,35.97
2023-04-14T02:02:21.257Z,36.06
2023-04-14T02:04:49.904Z,35.92
2023-04-14T02:07:21.839Z,36.17
2023-04-14T02:09:50.674Z,35.94
2023-04-14T02:12:21.235Z,36.05
2023-04-14T02:14:51.567Z,35.85
2023-04-14T02:17:21.539Z,36.00
2023-04-14T02:19:49.571Z,36.00
2023-04-14T02:22:16.236Z,35.85
2023-04-14T02:24:42.780Z,35.69
2023-04-14T02:27:13.786Z,35.67
2023-04-14T02:29:45.229Z,35.80
2023-04-14T02:32:22.505Z,35.65
2023-04-14T02:35:12.223Z,35.29
2023-04-14T02:37:42.218Z,35.36
2023-04-14T02:40:16.923Z,35.31
2023-04-14T02:42:48.105Z,35.13
2023-04-14T02:45:21.183Z,35.42
2023-04-14T02:47:55.893Z,35.43
2023-04-14T02:50:25.292Z,35.47
2023-04-14T02:53:04.036Z,35.34
2023-04-14T02:55:36.694Z,35.22
2023-04-14T02:58:03.917Z,35.18
2023-04-14T03:00:38.037Z,35.22
2023-04-14T03:03:06.789Z,35.07
2023-04-14T03:05:35.657Z,35.38
2023-04-14T03:08:14.869Z,35.21
2023-04-14T03:10:46.182Z,35.00
2023-04-14T03:13:15.357Z,35.00
2023-04-14T03:15:42.797Z,35.26
2023-04-14T03:18:12.233Z,35.07
2023-04-14T03:20:40.535Z,35.24
2023-04-14T03:23:11.821Z,34.92
2023-04-14T03:25:46.583Z,35.01
2023-04-14T03:28:22.818Z,35.06
2023-04-14T03:30:54.002Z,34.89
2023-04-14T03:33:29.006Z,34.84
2023-04-14T03:36:01.587Z,35.26
2023-04-14T03:38:30.488Z,35.15
2023-04-14T03:41:06.288Z,35.00
2023-04-14T03:43:33.778Z,34.99
2023-04-14T03:46:07.808Z,35.16
2023-04-14T03:48:39.401Z,34.99
2023-04-14T03:51:09.139Z,34.90
2023-04-14T03:53:38.116Z,34.87
2023-04-14T03:56:06.991Z,35.15
2023-04-14T03:58:34.602Z,35.19
2023-04-14T04:01:02.512Z,35.07
2023-04-14T04:03:30.105Z,35.12
2023-04-14T04:05:58.695Z,35.27
2023-04-14T04:08:26.678Z,34.88
2023-04-14T04:10:54.921Z,35.21
2023-04-14T04:13:24.180Z,35.13
2023-04-14T04:15:51.992Z,35.58
2023-04-14T04:18:20.647Z,35.50
2023-04-14T04:20:48.346Z,35.45
2023-04-14T04:23:18.297Z,35.83
2023-04-14T04:25:45.139Z,35.49
2023-04-14T04:28:20.749Z,35.83
2023-04-14T04:30:48.790Z,35.44
2023-04-14T04:33:16.846Z,35.76
2023-04-14T04:35:44.125Z,35.84
2023-04-14T04:38:11.553Z,35.86
2023-04-14T04:40:41.477Z,36.11
2023-04-14T04:43:18.936Z,36.44
2023-04-14T04:46:04.214Z,36.69
2023-04-14T04:48:31.605Z,36.91
2023-04-14T04:50:58.108Z,37.48
2023-04-14T04:53:24.668Z,37.53
2023-04-14T04:55:51.287Z,37.38
2023-04-14T04:58:18.248Z,37.37
2023-04-14T05:00:44.712Z,37.04
2023-04-14T05:03:11.310Z,36.98
2023-04-14T05:05:37.909Z,36.89
2023-04-14T05:08:05.406Z,37.39
2023-04-14T05:10:35.389Z,37.32
2023-04-14T05:13:02.272Z,37.29
2023-04-14T05:15:28.984Z,37.42
2023-04-14T05:17:55.685Z,37.80
2023-04-14T05:20:22.222Z,37.42
2023-04-14T05:22:48.754Z,37.89
2023-04-14T05:25:15.520Z,37.59
2023-04-14T05:27:42.073Z,37.84
2023-04-14T05:30:09.058Z,37.68
2023-04-14T05:32:35.788Z,37.58
2023-04-14T05:35:02.421Z,37.70
2023-04-14T05:37:30.084Z,37.61
2023-04-14T05:39:56.751Z,37.82
2023-04-14T05:42:23.570Z,37.77
2023-04-14T05:44:50.139Z,37.97
2023-04-14T05:47:17.180Z,37.41
2023-04-14T05:49:43.651Z,37.57
2023-04-14T05:52:10.433Z,37.09
2023-04-14T05:54:37.014Z,37.16
2023-04-14T05:57:03.720Z,36.81
2023-04-14T05:59:30.383Z,36.86
2023-04-14T06:01:57.052Z,36.76
2023-04-14T06:04:23.872Z,36.75
2023-04-14T06:06:50.900Z,36.61
2023-04-14T06:09:17.723Z,36.31
2023-04-14T06:11:44.247Z,36.40
2023-04-14T06:14:10.901Z,36.12
2023-04-14T06:16:37.546Z,36.16
2023-04-14T06:19:04.346Z,36.08
2023-04-14T06:21:31.723Z,36.10
2023-04-14T06:23:58.371Z,35.98
2023-04-14T06:26:25.748Z,35.73
2023-04-14T06:28:52.257Z,35.91
2023-04-14T06:31:18.863Z,35.93
2023-04-14T06:33:45.380Z,35.79
2023-04-14T06:36:13.125Z,35.63
2023-04-14T06:38:39.666Z,35.56
2023-04-14T06:41:06.234Z,35.35
2023-04-14T06:43:33.081Z,35.18
2023-04-14T06:45:59.724Z,35.36
2023-04-14T06:48:27.311Z,35.56
2023-04-14T06:50:55.769Z,35.73
2023-04-14T06:53:23.173Z,35.36
2023-04-14T06:55:51.934Z,35.50
2023-04-14T06:58:18.553Z,35.35
2023-04-14T07:00:45.137Z,35.12
2023-04-14T07:03:11.675Z,35.07
2023-04-14T07:06:00.457Z,35.25
2023-04-14T07:08:32.267Z,34.99
2023-04-14T07:11:04.112Z,34.97
2023-04-14T07:13:30.927Z,35.11
2023-04-14T07:15:57.821Z,34.91
2023-04-14T07:18:24.695Z,34.91
2023-04-14T07:20:52.580Z,35.30
2023-04-14T07:23:19.097Z,34.70
2023-04-14T07:25:51.252Z,34.77
2023-04-14T07:28:19.571Z,34.87
2023-04-14T07:30:46.265Z,35.08
2023-04-14T07:33:20.232Z,34.99
2023-04-14T07:36:01.950Z,34.97
2023-04-14T07:38:29.223Z,34.83
2023-04-14T07:40:55.764Z,35.02
2023-04-14T07:43:23.138Z,35.03
2023-04-14T07:45:49.790Z,34.90
2023-04-14T07:48:19.419Z,34.89
2023-04-14T07:50:48.297Z,34.58
2023-04-14T07:53:14.941Z,34.56
2023-04-14T07:55:41.883Z,34.71
2023-04-14T07:58:08.392Z,34.56
2023-04-14T08:00:34.918Z,34.49
2023-04-14T08:03:02.674Z,34.71
2023-04-14T08:05:29.458Z,34.71
2023-04-14T08:07:56.270Z,34.72
2023-04-14T08:10:22.769Z,34.64
2023-04-14T08:12:49.270Z,34.46
2023-04-14T08:15:15.852Z,34.57
2023-04-14T08:17:42.399Z,34.72
2023-04-14T08:20:09.191Z,34.56
2023-04-14T08:22:35.970Z,34.57
2023-04-14T08:25:02.509Z,34.49
2023-04-14T08:27:29.236Z,34.48
2023-04-14T08:29:55.842Z,34.55
2023-04-14T08:32:22.408Z,34.48
2023-04-14T08:35:37.200Z,34.40
2023-04-14T08:37:35.965Z,34.44
2023-04-14T08:40:02.627Z,34.44
2023-04-14T08:42:29.495Z,34.15
2023-04-14T08:44:56.079Z,34.44
2023-04-14T08:47:22.985Z,34.45
2023-04-14T08:49:56.902Z,34.33
2023-04-14T08:52:27.591Z,34.10
2023-04-14T08:54:56.980Z,34.31
2023-04-14T08:57:26.603Z,34.27
2023-04-14T08:59:56.817Z,34.40
2023-04-14T09:02:24.648Z,34.44
2023-04-14T09:04:52.530Z,34.00
2023-04-14T09:07:20.749Z,34.20
2023-04-14T09:09:47.594Z,34.17
2023-04-14T09:12:16.694Z,34.25
2023-04-14T09:14:44.659Z,34.20
2023-04-14T09:17:11.717Z,34.09
2023-04-14T09:20:38.078Z,34.43
2023-04-14T09:22:28.418Z,34.34
2023-04-14T09:24:57.208Z,34.51
2023-04-14T09:27:23.783Z,34.33
2023-04-14T09:29:51.507Z,34.55
2023-04-14T09:32:18.583Z,34.68
2023-04-14T09:34:53.441Z,34.53
2023-04-14T09:37:21.519Z,34.73
2023-04-14T09:39:51.054Z,34.57
2023-04-14T09:42:18.712Z,34.79
2023-04-14T09:44:58.987Z,34.44
2023-04-14T09:47:26.385Z,34.66
2023-04-14T09:49:58.006Z,34.58
2023-04-14T09:52:42.459Z,34.90
2023-04-14T09:55:14.291Z,34.65
2023-04-14T09:57:47.269Z,34.81
2023-04-14T10:00:17.910Z,34.93
2023-04-14T10:02:57.931Z,34.85
2023-04-14T10:05:34.392Z,34.79
2023-04-14T10:08:05.612Z,34.50
2023-04-14T10:10:35.413Z,34.42
2023-04-14T10:13:02.142Z,34.66
2023-04-14T10:15:28.975Z,34.47
2023-04-14T10:17:56.393Z,34.40
2023-04-14T10:20:23.237Z,34.59
2023-04-14T10:22:50.631Z,34.50
2023-04-14T10:25:18.197Z,34.59
2023-04-14T10:27:45.463Z,34.48
2023-04-14T10:30:12.382Z,34.67
2023-04-14T10:32:40.606Z,34.69
2023-04-14T10:35:10.213Z,34.29
2023-04-14T10:37:37.200Z,34.68
2023-04-14T10:40:07.137Z,34.63
2023-04-14T10:42:54.481Z,34.69
2023-04-14T10:45:21.712Z,34.36
2023-04-14T10:47:49.957Z,34.55
2023-04-14T10:50:18.605Z,34.67
2023-04-14T10:52:55.812Z,34.38
2023-04-14T10:55:24.596Z,34.58
2023-04-14T10:57:54.390Z,34.44
2023-04-14T11:00:23.261Z,34.47
2023-04-14T11:03:10.625Z,34.30
2023-04-14T11:05:52.840Z,34.54
2023-04-14T11:08:26.617Z,34.43
2023-04-14T11:11:03.538Z,34.09
2023-04-14T11:13:31.402Z,34.32
2023-04-14T11:16:01.523Z,34.50
2023-04-14T11:18:31.624Z,34.42
2023-04-14T11:21:06.394Z,34.12
2023-04-14T11:23:34.719Z,34.45
2023-04-14T11:26:01.937Z,34.06
2023-04-14T11:28:33.139Z,34.06
2023-04-14T11:31:01.350Z,34.05
2023-04-14T11:33:32.171Z,34.32
2023-04-14T11:35:59.067Z,34.22
2023-04-14T11:38:25.876Z,34.26
2023-04-14T11:40:52.487Z,34.15
2023-04-14T11:43:22.184Z,34.17
2023-04-14T11:45:50.923Z,34.08
2023-04-14T11:48:19.794Z,34.08
2023-04-14T11:50:47.819Z,34.04
2023-04-14T11:53:18.747Z,34.22
2023-04-14T11:55:49.146Z,33.91
2023-04-14T11:58:21.548Z,33.89
2023-04-14T12:00:49.905Z,34.06
2023-04-14T12:03:17.078Z,34.07
2023-04-14T12:05:44.914Z,33.95
2023-04-14T12:08:12.622Z,34.24
2023-04-14T12:10:42.000Z,34.17
2023-04-14T12:13:10.404Z,34.08
2023-04-14T12:15:39.334Z,33.88
2023-04-14T12:18:11.499Z,33.95
2023-04-14T12:21:02.065Z,33.97
2023-04-14T12:23:28.716Z,34.05
2023-04-14T12:25:55.333Z,33.99
2023-04-14T12:28:34.544Z,33.90
2023-04-14T12:31:04.013Z,34.11
2023-04-14T12:33:33.699Z,34.13
2023-04-14T12:36:04.770Z,33.98
2023-04-14T12:38:32.011Z,33.65
2023-04-14T12:40:58.560Z,34.06
2023-04-14T12:43:31.378Z,33.95
2023-04-14T12:45:58.780Z,33.67
2023-04-14T12:48:57.785Z,33.68
2023-04-14T12:51:24.343Z,34.01
2023-04-14T12:53:51.376Z,33.89
2023-04-14T12:56:24.069Z,33.80
2023-04-14T12:58:51.629Z,33.64
2023-04-14T13:01:20.079Z,33.53
2023-04-14T13:03:51.587Z,33.64
2023-04-14T13:06:19.983Z,33.88
2023-04-14T13:08:48.336Z,33.59
2023-04-14T13:11:16.149Z,33.60
2023-04-14T13:13:45.463Z,33.80
2023-04-14T13:16:16.970Z,33.79
2023-04-14T13:18:46.562Z,34.00
2023-04-14T13:21:13.401Z,33.92
2023-04-14T13:23:40.708Z,33.98
2023-04-14T13:26:07.319Z,34.13
2023-04-14T13:28:33.994Z,33.97
2023-04-14T13:31:00.966Z,33.91
2023-04-14T13:33:27.709Z,33.98
2023-04-14T13:35:55.727Z,33.73
2023-04-14T13:38:22.696Z,33.74
2023-04-14T13:40:49.303Z,33.70
2023-04-14T13:43:20.486Z,33.68
2023-04-14T13:45:47.388Z,33.79
2023-04-14T13:48:14.439Z,33.91
2023-04-14T13:50:41.147Z,33.55
2023-04-14T13:53:07.766Z,33.56
2023-04-14T13:55:36.002Z,33.89
2023-04-14T13:58:02.681Z,33.69
2023-04-14T14:00:29.780Z,33.88
2023-04-14T14:02:56.636Z,33.68
2023-04-14T14:05:24.121Z,33.59
2023-04-14T14:07:50.826Z,33.31
2023-04-14T14:10:17.447Z,33.32
2023-04-14T14:12:44.050Z,33.42
2023-04-14T14:15:11.323Z,33.23
2023-04-14T14:17:38.042Z,33.59
2023-04-14T14:20:04.962Z,33.33
2023-04-14T14:22:31.446Z,33.46
2023-04-14T14:25:10.802Z,33.34
2023-04-14T14:27:47.270Z,33.57
2023-04-14T14:30:14.016Z,33.47
2023-04-14T14:32:40.680Z,33.61
2023-04-14T14:35:08.149Z,33.63
2023-04-14T14:37:34.747Z,33.63
2023-04-14T14:40:01.306Z,33.30
2023-04-14T14:42:28.224Z,33.22
2023-04-14T14:44:54.926Z,33.23
2023-04-14T14:47:21.630Z,33.50
2023-04-14T14:49:57.103Z,33.34
2023-04-14T14:52:29.497Z,33.14
2023-04-14T14:54:55.991Z,33.65
2023-04-14T14:57:25.024Z,33.36
2023-04-14T14:59:53.816Z,33.34
2023-04-14T15:02:25.877Z,33.13
2023-04-14T15:04:55.583Z,33.23
2023-04-14T15:07:22.264Z,33.25
2023-04-14T15:09:49.883Z,33.25
2023-04-14T15:12:17.296Z,33.11
2023-04-14T15:14:44.693Z,33.35
2023-04-14T15:17:11.223Z,33.39
2023-04-14T15:19:38.236Z,33.28
2023-04-14T15:22:04.728Z,33.51
2023-04-14T15:24:31.253Z,33.47
2023-04-14T15:26:57.809Z,33.73
2023-04-14T15:29:26.968Z,33.87
2023-04-14T15:31:53.549Z,33.92
2023-04-14T15:34:21.325Z,34.05
2023-04-14T15:36:47.911Z,33.68
2023-04-14T15:39:14.445Z,33.73
2023-04-14T15:41:42.018Z,33.89
2023-04-14T15:44:08.542Z,34.08
2023-04-14T15:46:35.257Z,34.00
2023-04-14T15:49:01.868Z,33.69
2023-04-14T15:51:28.358Z,33.90
2023-04-14T15:53:54.885Z,33.74
2023-04-14T15:56:25.645Z,33.76
2023-04-14T15:58:54.395Z,33.74
2023-04-14T16:01:21.102Z,33.99
2023-04-14T16:03:49.210Z,34.04
2023-04-14T16:06:17.139Z,33.87
2023-04-14T16:08:43.701Z,33.79
2023-04-14T16:11:16.503Z,33.77
2023-04-14T16:13:46.374Z,34.19
2023-04-14T16:16:14.769Z,34.01
2023-04-14T16:18:41.554Z,34.17
2023-04-14T16:21:08.240Z,34.15
2023-04-14T16:23:36.071Z,33.85
2023-04-14T16:26:02.796Z,33.81
2023-04-14T16:28:30.362Z,34.24
2023-04-14T16:30:59.694Z,34.24
2023-04-14T16:33:26.371Z,34.12
2023-04-14T16:35:53.914Z,34.20
2023-04-14T16:38:20.486Z,34.00
2023-04-14T16:40:54.686Z,33.67
2023-04-14T16:43:21.352Z,33.86
2023-04-14T16:45:48.030Z,33.90
2023-04-14T16:48:14.798Z,34.11
2023-04-14T16:50:42.653Z,33.81
2023-04-14T16:53:09.318Z,33.76
2023-04-14T16:55:35.814Z,33.84
2023-04-14T16:58:03.080Z,33.91
2023-04-14T17:00:29.666Z,33.67
2023-04-14T17:02:56.616Z,33.93
2023-04-14T17:05:23.350Z,33.79
2023-04-14T17:07:50.024Z,33.93
2023-04-14T17:10:16.832Z,33.97
2023-04-14T17:12:43.450Z,34.08
2023-04-14T17:15:10.286Z,33.93
2023-04-14T17:17:36.959Z,34.17
2023-04-14T17:20:06.232Z,34.15
2023-04-14T17:22:34.524Z,33.99
2023-04-14T17:25:04.744Z,34.22
2023-04-14T17:27:31.922Z,34.36
2023-04-14T17:29:58.915Z,34.31
2023-04-14T17:32:26.473Z,34.02
2023-04-14T17:34:56.594Z,34.07
2023-04-14T17:37:23.622Z,34.31
2023-04-14T17:39:53.001Z,34.28
2023-04-14T17:42:19.618Z,34.05
2023-04-14T17:44:46.741Z,34.09
2023-04-14T17:47:16.834Z,34.25
2023-04-14T17:49:43.992Z,34.38
2023-04-14T17:52:20.718Z,34.47
2023-04-14T17:54:50.780Z,34.12
2023-04-14T17:57:19.820Z,34.31
2023-04-14T17:59:46.798Z,34.23
2023-04-14T18:02:16.437Z,34.14
2023-04-14T18:04:43.623Z,34.09
2023-04-14T18:07:10.453Z,34.46
2023-04-14T18:09:37.054Z,34.41
2023-04-14T18:12:03.601Z,34.51
2023-04-14T18:14:31.091Z,34.25
2023-04-14T18:16:58.364Z,34.50
2023-04-14T18:19:25.082Z,34.48
2023-04-14T18:21:51.709Z,34.41
2023-04-14T18:26:47.976Z,34.46
2023-04-14T18:29:14.992Z,34.61
2023-04-14T18:31:42.755Z,34.28
2023-04-14T18:34:11.731Z,34.53
2023-04-14T18:36:42.217Z,34.36
2023-04-14T18:39:09.644Z,34.62
2023-04-14T18:41:36.354Z,34.55
2023-04-14T18:44:04.377Z,34.38
2023-04-14T18:46:32.041Z,34.67
2023-04-14T18:49:04.238Z,34.53
2023-04-14T18:51:33.829Z,34.36
2023-04-14T18:54:03.874Z,34.48
2023-04-14T18:56:31.558Z,34.50
2023-04-14T18:58:58.286Z,34.75
2023-04-14T19:01:25.644Z,34.80
2023-04-14T19:03:54.396Z,34.63
2023-04-14T19:06:24.671Z,34.56
2023-04-14T19:08:51.993Z,34.78
2023-04-14T19:11:21.675Z,34.53
2023-04-14T19:13:48.319Z,34.82
2023-04-14T19:16:19.278Z,34.78
2023-04-14T19:18:46.139Z,35.01
2023-04-14T19:21:13.968Z,34.75
2023-04-14T19:23:41.096Z,35.20
2023-04-14T19:26:16.166Z,34.81
2023-04-14T19:28:50.848Z,34.89
2023-04-14T19:31:20.845Z,34.98
2023-04-14T19:33:49.212Z,35.31
2023-04-14T19:36:21.969Z,35.25
2023-04-14T19:38:51.786Z,34.95
2023-04-14T19:41:23.149Z,35.15
2023-04-14T19:43:52.044Z,35.25
2023-04-14T19:46:23.765Z,35.19
2023-04-14T19:48:54.602Z,35.18
2023-04-14T19:51:26.880Z,34.91
2023-04-14T19:53:53.454Z,34.88
2023-04-14T19:56:20.109Z,35.04
2023-04-14T19:58:47.054Z,35.20
2023-04-14T20:01:13.687Z,34.88
2023-04-14T20:04:05.021Z,35.10
2023-04-14T20:06:33.288Z,35.10
2023-04-14T20:09:05.187Z,35.38
2023-04-14T20:11:32.249Z,35.40
2023-04-14T20:13:59.438Z,35.58
2023-04-14T20:16:28.667Z,35.59
2023-04-14T20:18:55.532Z,35.74
2023-04-14T20:21:26.543Z,35.66
2023-04-14T20:23:56.067Z,35.99
2023-04-14T20:26:23.107Z,36.04
2023-04-14T20:28:52.682Z,35.78
2023-04-14T20:31:19.473Z,35.92
2023-04-14T20:33:46.165Z,35.77
2023-04-14T20:36:12.720Z,35.73
2023-04-14T20:38:39.420Z,35.74
2023-04-14T20:41:05.946Z,35.57
2023-04-14T20:43:34.287Z,35.56
2023-04-14T20:46:02.368Z,35.80
2023-04-14T20:48:30.656Z,35.49
2023-04-14T20:50:57.701Z,35.40
2023-04-14T20:53:26.742Z,35.59
2023-04-14T20:55:53.469Z,35.58
2023-04-14T20:58:20.558Z,35.14
2023-04-14T21:00:47.208Z,35.33
2023-04-14T21:03:14.343Z,35.33
2023-04-14T21:05:41.547Z,35.19
2023-04-14T21:08:09.935Z,35.18
2023-04-14T21:10:36.447Z,35.22
2023-04-14T21:15:28.995Z,35.47
2023-04-14T21:16:10.011Z,35.55
2023-04-14T21:18:37.010Z,35.74
2023-04-14T21:21:04.873Z,35.96
2023-04-14T21:23:31.583Z,36.02
2023-04-14T21:25:59.862Z,36.02
2023-04-14T21:28:27.367Z,36.13
2023-04-14T21:31:01.152Z,36.11
2023-04-14T21:33:28.294Z,36.30
2023-04-14T21:35:55.529Z,36.49
2023-04-14T21:38:22.628Z,36.57
2023-04-14T21:40:50.039Z,36.90
2023-04-14T21:43:17.345Z,36.84
2023-04-14T21:45:45.426Z,37.04
2023-04-14T21:48:12.792Z,37.28
2023-04-14T21:50:39.701Z,37.04
2023-04-14T21:53:06.337Z,37.01
2023-04-14T21:55:33.023Z,37.00
2023-04-14T21:58:01.308Z,37.18
2023-04-14T22:00:27.926Z,37.04
2023-04-14T22:02:54.673Z,36.77
2023-04-14T22:05:21.367Z,36.70
2023-04-14T22:07:48.102Z,36.97
2023-04-14T22:10:14.712Z,36.81
2023-04-14T22:12:44.723Z,36.77
2023-04-14T22:15:11.389Z,36.80
2023-04-14T22:17:38.925Z,36.60
2023-04-14T22:20:06.398Z,36.41
2023-04-14T22:22:33.746Z,36.24
2023-04-14T22:25:01.871Z,36.58
2023-04-14T22:27:28.438Z,36.34
2023-04-14T22:32:17.091Z,36.51
2023-04-14T22:34:43.675Z,36.21
2023-04-14T22:37:10.313Z,36.35
2023-04-14T22:39:37.954Z,36.11
2023-04-14T22:42:04.439Z,36.27
2023-04-14T22:44:31.064Z,36.49
2023-04-14T22:46:57.797Z,36.39
2023-04-14T22:49:24.634Z,36.29
2023-04-14T22:51:51.781Z,36.36
2023-04-14T22:54:18.499Z,36.11
2023-04-14T22:56:45.033Z,36.25
2023-04-14T22:59:11.648Z,36.42
2023-04-14T23:01:38.194Z,36.37
2023-04-14T23:04:05.340Z,36.30
2023-04-14T23:06:31.980Z,36.23
2023-04-14T23:08:58.543Z,36.24
2023-04-14T23:11:25.110Z,36.27
2023-04-14T23:13:51.770Z,35.95
2023-04-14T23:16:20.238Z,36.11
2023-04-14T23:18:52.262Z,36.03
2023-04-14T23:21:22.516Z,35.95
2023-04-14T23:23:55.198Z,36.22
2023-04-14T23:26:23.933Z,36.15
2023-04-14T23:28:50.577Z,36.04
2023-04-14T23:31:17.922Z,36.05
2023-04-14T23:33:45.363Z,36.05
2023-04-14T23:36:12.434Z,36.06
2023-04-14T23:38:39.346Z,36.05
2023-04-14T23:41:05.863Z,35.90
2023-04-14T23:43:35.700Z,36.30
2023-04-14T23:46:02.562Z,36.23
2023-04-14T23:48:29.213Z,36.08
2023-04-14T23:50:59.245Z,36.00
2023-04-14T23:53:31.096Z,36.20
2023-04-14T23:55:57.721Z,35.94
2023-04-14T23:58:26.912Z,35.96
